sensor_id;sensor_type;location;lat;lon;timestamp;P1;durP1;ratioP1;P2;durP2;ratioP2
66626;SDS011;53498;50.422;14.912;2023-07-08T00:01:12;3.75;;;3.42;;
66626;SDS011;53498;50.422;14.912;2023-07-08T00:03:45;4.30;;;3.78;;
66626;SDS011;53498;50.422;14.912;2023-07-08T00:06:18;4.95;;;3.40;;
66626;SDS011;53498;50.422;14.912;2023-07-08T00:08:46;6.55;;;3.60;;
66626;SDS011;53498;50.422;14.912;2023-07-08T00:11:13;6.07;;;3.72;;
66626;SDS011;53498;50.422;14.912;2023-07-08T00:13:40;5.35;;;3.72;;
66626;SDS011;53498;50.422;14.912;2023-07-08T00:16:13;5.25;;;3.65;;
66626;SDS011;53498;50.422;14.912;2023-07-08T00:18:40;5.18;;;3.50;;
66626;SDS011;53498;50.422;14.912;2023-07-08T00:21:10;4.03;;;3.55;;
66626;SDS011;53498;50.422;14.912;2023-07-08T00:26:18;5.22;;;4.10;;
66626;SDS011;53498;50.422;14.912;2023-07-08T00:28:48;5.15;;;3.53;;
66626;SDS011;53498;50.422;14.912;2023-07-08T00:31:14;4.63;;;3.58;;
66626;SDS011;53498;50.422;14.912;2023-07-08T00:33:40;6.15;;;4.00;;
66626;SDS011;53498;50.422;14.912;2023-07-08T00:36:09;4.88;;;3.47;;
66626;SDS011;53498;50.422;14.912;2023-07-08T00:38:38;5.55;;;3.67;;
66626;SDS011;53498;50.422;14.912;2023-07-08T00:43:38;4.13;;;3.30;;
66626;SDS011;53498;50.422;14.912;2023-07-08T00:48:43;4.20;;;3.55;;
66626;SDS011;53498;50.422;14.912;2023-07-08T00:51:10;6.28;;;3.30;;
66626;SDS011;53498;50.422;14.912;2023-07-08T00:53:37;4.13;;;3.53;;
66626;SDS011;53498;50.422;14.912;2023-07-08T00:56:11;4.45;;;3.70;;
66626;SDS011;53498;50.422;14.912;2023-07-08T00:58:42;5.40;;;3.45;;
66626;SDS011;53498;50.422;14.912;2023-07-08T01:01:11;4.68;;;3.65;;
66626;SDS011;53498;50.422;14.912;2023-07-08T01:03:48;4.20;;;3.60;;
66626;SDS011;53498;50.422;14.912;2023-07-08T01:06:36;5.65;;;3.40;;
66626;SDS011;53498;50.422;14.912;2023-07-08T01:09:05;4.25;;;3.25;;
66626;SDS011;53498;50.422;14.912;2023-07-08T01:11:33;3.97;;;3.60;;
66626;SDS011;53498;50.422;14.912;2023-07-08T01:14:03;7.10;;;3.80;;
66626;SDS011;53498;50.422;14.912;2023-07-08T01:16:31;4.60;;;3.28;;
66626;SDS011;53498;50.422;14.912;2023-07-08T01:18:59;6.03;;;3.47;;
66626;SDS011;53498;50.422;14.912;2023-07-08T01:21:30;4.28;;;2.88;;
66626;SDS011;53498;50.422;14.912;2023-07-08T01:23:57;5.63;;;3.47;;
66626;SDS011;53498;50.422;14.912;2023-07-08T01:26:23;3.80;;;3.00;;
66626;SDS011;53498;50.422;14.912;2023-07-08T01:28:51;6.00;;;3.50;;
66626;SDS011;53498;50.422;14.912;2023-07-08T01:31:20;5.28;;;3.40;;
66626;SDS011;53498;50.422;14.912;2023-07-08T01:33:47;6.75;;;3.78;;
66626;SDS011;53498;50.422;14.912;2023-07-08T01:36:12;4.90;;;3.72;;
66626;SDS011;53498;50.422;14.912;2023-07-08T01:38:38;4.05;;;3.65;;
66626;SDS011;53498;50.422;14.912;2023-07-08T01:41:05;4.47;;;3.22;;
66626;SDS011;53498;50.422;14.912;2023-07-08T01:43:36;4.63;;;3.50;;
66626;SDS011;53498;50.422;14.912;2023-07-08T01:46:02;4.50;;;3.20;;
66626;SDS011;53498;50.422;14.912;2023-07-08T01:48:31;3.55;;;3.20;;
66626;SDS011;53498;50.422;14.912;2023-07-08T01:51:01;7.18;;;3.83;;
66626;SDS011;53498;50.422;14.912;2023-07-08T01:53:30;4.82;;;3.60;;
66626;SDS011;53498;50.422;14.912;2023-07-08T01:55:57;4.18;;;3.47;;
66626;SDS011;53498;50.422;14.912;2023-07-08T01:58:23;3.97;;;3.40;;
66626;SDS011;53498;50.422;14.912;2023-07-08T02:00:49;4.82;;;3.10;;
66626;SDS011;53498;50.422;14.912;2023-07-08T02:03:16;5.50;;;3.38;;
66626;SDS011;53498;50.422;14.912;2023-07-08T02:05:41;6.10;;;3.42;;
66626;SDS011;53498;50.422;14.912;2023-07-08T02:08:07;5.57;;;3.35;;
66626;SDS011;53498;50.422;14.912;2023-07-08T02:10:33;4.57;;;3.15;;
66626;SDS011;53498;50.422;14.912;2023-07-08T02:12:59;5.65;;;3.35;;
66626;SDS011;53498;50.422;14.912;2023-07-08T02:15:25;7.80;;;3.40;;
66626;SDS011;53498;50.422;14.912;2023-07-08T02:17:51;5.05;;;3.20;;
66626;SDS011;53498;50.422;14.912;2023-07-08T02:20:17;5.35;;;3.42;;
66626;SDS011;53498;50.422;14.912;2023-07-08T02:22:42;4.55;;;3.20;;
66626;SDS011;53498;50.422;14.912;2023-07-08T02:25:08;4.88;;;3.40;;
66626;SDS011;53498;50.422;14.912;2023-07-08T02:27:37;4.85;;;3.72;;
66626;SDS011;53498;50.422;14.912;2023-07-08T02:30:03;6.97;;;3.35;;
66626;SDS011;53498;50.422;14.912;2023-07-08T02:32:29;4.43;;;3.67;;
66626;SDS011;53498;50.422;14.912;2023-07-08T02:34:55;4.57;;;3.25;;
66626;SDS011;53498;50.422;14.912;2023-07-08T02:37:21;4.07;;;3.65;;
66626;SDS011;53498;50.422;14.912;2023-07-08T02:39:46;5.57;;;3.40;;
66626;SDS011;53498;50.422;14.912;2023-07-08T02:42:12;6.03;;;4.00;;
66626;SDS011;53498;50.422;14.912;2023-07-08T02:44:37;4.43;;;3.42;;
66626;SDS011;53498;50.422;14.912;2023-07-08T02:47:03;4.60;;;3.40;;
66626;SDS011;53498;50.422;14.912;2023-07-08T02:49:29;9.30;;;3.83;;
66626;SDS011;53498;50.422;14.912;2023-07-08T02:51:55;5.55;;;3.17;;
66626;SDS011;53498;50.422;14.912;2023-07-08T02:54:20;4.05;;;3.15;;
66626;SDS011;53498;50.422;14.912;2023-07-08T02:56:46;5.13;;;3.60;;
66626;SDS011;53498;50.422;14.912;2023-07-08T02:59:12;5.25;;;3.78;;
66626;SDS011;53498;50.422;14.912;2023-07-08T03:01:37;4.78;;;3.33;;
66626;SDS011;53498;50.422;14.912;2023-07-08T03:04:07;3.75;;;3.17;;
66626;SDS011;53498;50.422;14.912;2023-07-08T03:06:34;5.88;;;3.50;;
66626;SDS011;53498;50.422;14.912;2023-07-08T03:09:00;3.67;;;3.17;;
66626;SDS011;53498;50.422;14.912;2023-07-08T03:11:26;6.55;;;3.53;;
66626;SDS011;53498;50.422;14.912;2023-07-08T03:13:51;5.93;;;3.60;;
66626;SDS011;53498;50.422;14.912;2023-07-08T03:16:17;3.95;;;3.13;;
66626;SDS011;53498;50.422;14.912;2023-07-08T03:18:42;4.93;;;3.28;;
66626;SDS011;53498;50.422;14.912;2023-07-08T03:21:15;7.43;;;3.67;;
66626;SDS011;53498;50.422;14.912;2023-07-08T03:23:42;4.80;;;3.80;;
66626;SDS011;53498;50.422;14.912;2023-07-08T03:26:15;4.40;;;3.00;;
66626;SDS011;53498;50.422;14.912;2023-07-08T03:28:44;3.83;;;3.25;;
66626;SDS011;53498;50.422;14.912;2023-07-08T03:31:10;3.92;;;3.13;;
66626;SDS011;53498;50.422;14.912;2023-07-08T03:33:35;4.30;;;3.55;;
66626;SDS011;53498;50.422;14.912;2023-07-08T03:36:02;3.97;;;3.33;;
66626;SDS011;53498;50.422;14.912;2023-07-08T03:38:28;7.28;;;3.83;;
66626;SDS011;53498;50.422;14.912;2023-07-08T03:40:54;5.50;;;3.50;;
66626;SDS011;53498;50.422;14.912;2023-07-08T03:43:20;5.05;;;3.78;;
66626;SDS011;53498;50.422;14.912;2023-07-08T03:45:46;4.60;;;3.22;;
66626;SDS011;53498;50.422;14.912;2023-07-08T03:48:11;5.20;;;3.20;;
66626;SDS011;53498;50.422;14.912;2023-07-08T03:50:37;4.90;;;3.38;;
66626;SDS011;53498;50.422;14.912;2023-07-08T03:53:03;7.15;;;4.07;;
66626;SDS011;53498;50.422;14.912;2023-07-08T03:55:29;4.65;;;3.70;;
66626;SDS011;53498;50.422;14.912;2023-07-08T03:57:55;6.95;;;4.38;;
66626;SDS011;53498;50.422;14.912;2023-07-08T04:00:24;5.47;;;3.50;;
66626;SDS011;53498;50.422;14.912;2023-07-08T04:02:52;4.20;;;3.60;;
66626;SDS011;53498;50.422;14.912;2023-07-08T04:05:19;4.88;;;3.50;;
66626;SDS011;53498;50.422;14.912;2023-07-08T04:07:47;6.38;;;3.53;;
66626;SDS011;53498;50.422;14.912;2023-07-08T04:10:13;6.53;;;3.88;;
66626;SDS011;53498;50.422;14.912;2023-07-08T04:12:39;3.90;;;3.05;;
66626;SDS011;53498;50.422;14.912;2023-07-08T04:15:07;5.65;;;3.53;;
66626;SDS011;53498;50.422;14.912;2023-07-08T04:17:35;4.05;;;3.40;;
66626;SDS011;53498;50.422;14.912;2023-07-08T04:20:05;6.78;;;3.67;;
66626;SDS011;53498;50.422;14.912;2023-07-08T04:22:31;3.67;;;3.10;;
66626;SDS011;53498;50.422;14.912;2023-07-08T04:24:57;4.25;;;3.38;;
66626;SDS011;53498;50.422;14.912;2023-07-08T04:27:22;4.28;;;3.40;;
66626;SDS011;53498;50.422;14.912;2023-07-08T04:29:48;5.38;;;3.05;;
66626;SDS011;53498;50.422;14.912;2023-07-08T04:32:13;5.65;;;3.20;;
66626;SDS011;53498;50.422;14.912;2023-07-08T04:34:39;6.03;;;4.10;;
66626;SDS011;53498;50.422;14.912;2023-07-08T04:37:04;3.67;;;3.33;;
66626;SDS011;53498;50.422;14.912;2023-07-08T04:39:31;4.80;;;3.38;;
66626;SDS011;53498;50.422;14.912;2023-07-08T04:41:56;3.67;;;3.30;;
66626;SDS011;53498;50.422;14.912;2023-07-08T04:44:22;4.93;;;3.55;;
66626;SDS011;53498;50.422;14.912;2023-07-08T04:46:53;4.32;;;3.58;;
66626;SDS011;53498;50.422;14.912;2023-07-08T04:49:21;3.75;;;3.38;;
66626;SDS011;53498;50.422;14.912;2023-07-08T04:51:47;5.38;;;3.40;;
66626;SDS011;53498;50.422;14.912;2023-07-08T04:54:12;6.88;;;3.60;;
66626;SDS011;53498;50.422;14.912;2023-07-08T04:56:42;4.32;;;3.67;;
66626;SDS011;53498;50.422;14.912;2023-07-08T04:59:16;3.78;;;3.38;;
66626;SDS011;53498;50.422;14.912;2023-07-08T05:04:10;5.03;;;3.53;;
66626;SDS011;53498;50.422;14.912;2023-07-08T05:06:37;4.50;;;3.05;;
66626;SDS011;53498;50.422;14.912;2023-07-08T05:09:03;4.45;;;3.55;;
66626;SDS011;53498;50.422;14.912;2023-07-08T05:11:29;4.60;;;3.65;;
66626;SDS011;53498;50.422;14.912;2023-07-08T05:13:55;3.83;;;3.22;;
66626;SDS011;53498;50.422;14.912;2023-07-08T05:16:20;4.80;;;3.08;;
66626;SDS011;53498;50.422;14.912;2023-07-08T05:18:46;4.32;;;3.30;;
66626;SDS011;53498;50.422;14.912;2023-07-08T05:21:12;4.57;;;3.60;;
66626;SDS011;53498;50.422;14.912;2023-07-08T05:23:38;4.00;;;3.15;;
66626;SDS011;53498;50.422;14.912;2023-07-08T05:26:04;5.72;;;3.00;;
66626;SDS011;53498;50.422;14.912;2023-07-08T05:28:31;7.15;;;3.47;;
66626;SDS011;53498;50.422;14.912;2023-07-08T05:30:56;5.32;;;3.42;;
66626;SDS011;53498;50.422;14.912;2023-07-08T05:33:23;5.38;;;3.88;;
66626;SDS011;53498;50.422;14.912;2023-07-08T05:35:50;9.60;;;4.00;;
66626;SDS011;53498;50.422;14.912;2023-07-08T05:38:16;4.95;;;3.55;;
66626;SDS011;53498;50.422;14.912;2023-07-08T05:40:42;4.38;;;3.10;;
66626;SDS011;53498;50.422;14.912;2023-07-08T05:43:07;4.18;;;3.47;;
66626;SDS011;53498;50.422;14.912;2023-07-08T05:45:33;4.13;;;3.33;;
66626;SDS011;53498;50.422;14.912;2023-07-08T05:48:01;4.70;;;3.25;;
66626;SDS011;53498;50.422;14.912;2023-07-08T05:50:26;4.65;;;3.17;;
66626;SDS011;53498;50.422;14.912;2023-07-08T05:52:52;4.75;;;3.13;;
66626;SDS011;53498;50.422;14.912;2023-07-08T05:55:18;4.20;;;3.10;;
66626;SDS011;53498;50.422;14.912;2023-07-08T05:57:44;3.63;;;3.13;;
66626;SDS011;53498;50.422;14.912;2023-07-08T06:00:09;5.00;;;3.63;;
66626;SDS011;53498;50.422;14.912;2023-07-08T06:02:36;4.38;;;3.50;;
66626;SDS011;53498;50.422;14.912;2023-07-08T06:05:01;5.47;;;3.28;;
66626;SDS011;53498;50.422;14.912;2023-07-08T06:07:28;3.85;;;3.45;;
66626;SDS011;53498;50.422;14.912;2023-07-08T06:09:53;4.35;;;3.17;;
66626;SDS011;53498;50.422;14.912;2023-07-08T06:12:21;5.07;;;3.15;;
66626;SDS011;53498;50.422;14.912;2023-07-08T06:14:47;4.35;;;3.45;;
66626;SDS011;53498;50.422;14.912;2023-07-08T06:17:12;4.40;;;3.05;;
66626;SDS011;53498;50.422;14.912;2023-07-08T06:19:38;4.35;;;3.60;;
66626;SDS011;53498;50.422;14.912;2023-07-08T06:22:04;3.95;;;3.00;;
66626;SDS011;53498;50.422;14.912;2023-07-08T06:24:30;4.18;;;3.00;;
66626;SDS011;53498;50.422;14.912;2023-07-08T06:26:56;4.57;;;3.28;;
66626;SDS011;53498;50.422;14.912;2023-07-08T06:29:21;5.25;;;3.10;;
66626;SDS011;53498;50.422;14.912;2023-07-08T06:31:47;4.20;;;3.33;;
66626;SDS011;53498;50.422;14.912;2023-07-08T06:34:12;3.72;;;2.80;;
66626;SDS011;53498;50.422;14.912;2023-07-08T06:36:38;4.68;;;3.00;;
66626;SDS011;53498;50.422;14.912;2023-07-08T06:39:03;4.20;;;3.20;;
66626;SDS011;53498;50.422;14.912;2023-07-08T06:41:32;5.55;;;3.47;;
66626;SDS011;53498;50.422;14.912;2023-07-08T06:43:58;3.70;;;3.08;;
66626;SDS011;53498;50.422;14.912;2023-07-08T06:46:24;7.70;;;3.83;;
66626;SDS011;53498;50.422;14.912;2023-07-08T06:48:49;3.90;;;3.42;;
66626;SDS011;53498;50.422;14.912;2023-07-08T06:51:15;5.57;;;3.25;;
66626;SDS011;53498;50.422;14.912;2023-07-08T06:53:41;3.97;;;3.10;;
66626;SDS011;53498;50.422;14.912;2023-07-08T06:56:07;5.05;;;3.30;;
66626;SDS011;53498;50.422;14.912;2023-07-08T06:58:33;4.35;;;3.47;;
66626;SDS011;53498;50.422;14.912;2023-07-08T07:00:59;4.50;;;3.40;;
66626;SDS011;53498;50.422;14.912;2023-07-08T07:03:25;4.40;;;3.47;;
66626;SDS011;53498;50.422;14.912;2023-07-08T07:05:51;5.40;;;3.28;;
66626;SDS011;53498;50.422;14.912;2023-07-08T07:08:16;4.13;;;3.58;;
66626;SDS011;53498;50.422;14.912;2023-07-08T07:10:42;3.53;;;3.03;;
66626;SDS011;53498;50.422;14.912;2023-07-08T07:13:08;5.35;;;3.00;;
66626;SDS011;53498;50.422;14.912;2023-07-08T07:15:33;5.60;;;3.45;;
66626;SDS011;53498;50.422;14.912;2023-07-08T07:17:59;5.13;;;3.60;;
66626;SDS011;53498;50.422;14.912;2023-07-08T07:20:25;3.50;;;3.17;;
66626;SDS011;53498;50.422;14.912;2023-07-08T07:22:51;4.10;;;3.60;;
66626;SDS011;53498;50.422;14.912;2023-07-08T07:25:17;4.55;;;3.40;;
66626;SDS011;53498;50.422;14.912;2023-07-08T07:27:43;4.50;;;2.80;;
66626;SDS011;53498;50.422;14.912;2023-07-08T07:30:12;4.93;;;3.47;;
66626;SDS011;53498;50.422;14.912;2023-07-08T07:32:40;4.60;;;3.15;;
66626;SDS011;53498;50.422;14.912;2023-07-08T07:35:10;5.13;;;3.38;;
66626;SDS011;53498;50.422;14.912;2023-07-08T07:37:40;4.32;;;2.90;;
66626;SDS011;53498;50.422;14.912;2023-07-08T07:40:07;5.25;;;3.58;;
66626;SDS011;53498;50.422;14.912;2023-07-08T07:42:40;3.70;;;3.40;;
66626;SDS011;53498;50.422;14.912;2023-07-08T07:45:07;4.30;;;3.47;;
66626;SDS011;53498;50.422;14.912;2023-07-08T07:47:32;3.33;;;2.88;;
66626;SDS011;53498;50.422;14.912;2023-07-08T07:49:59;4.57;;;3.38;;
66626;SDS011;53498;50.422;14.912;2023-07-08T07:52:24;5.47;;;3.60;;
66626;SDS011;53498;50.422;14.912;2023-07-08T07:54:51;3.90;;;3.33;;
66626;SDS011;53498;50.422;14.912;2023-07-08T07:57:16;5.13;;;3.13;;
66626;SDS011;53498;50.422;14.912;2023-07-08T07:59:42;4.05;;;3.08;;
66626;SDS011;53498;50.422;14.912;2023-07-08T08:02:08;5.03;;;3.15;;
66626;SDS011;53498;50.422;14.912;2023-07-08T08:04:34;3.83;;;2.88;;
66626;SDS011;53498;50.422;14.912;2023-07-08T08:06:59;4.40;;;2.70;;
66626;SDS011;53498;50.422;14.912;2023-07-08T08:09:25;4.50;;;2.88;;
66626;SDS011;53498;50.422;14.912;2023-07-08T08:11:51;4.90;;;3.03;;
66626;SDS011;53498;50.422;14.912;2023-07-08T08:14:17;4.60;;;3.13;;
66626;SDS011;53498;50.422;14.912;2023-07-08T08:16:43;3.15;;;2.85;;
66626;SDS011;53498;50.422;14.912;2023-07-08T08:19:09;4.47;;;3.00;;
66626;SDS011;53498;50.422;14.912;2023-07-08T08:21:35;3.42;;;2.60;;
66626;SDS011;53498;50.422;14.912;2023-07-08T08:24:01;3.30;;;2.90;;
66626;SDS011;53498;50.422;14.912;2023-07-08T08:26:27;4.15;;;2.90;;
66626;SDS011;53498;50.422;14.912;2023-07-08T08:28:54;4.05;;;2.97;;
66626;SDS011;53498;50.422;14.912;2023-07-08T08:31:20;5.13;;;3.03;;
66626;SDS011;53498;50.422;14.912;2023-07-08T08:33:46;3.63;;;3.20;;
66626;SDS011;53498;50.422;14.912;2023-07-08T08:36:11;3.80;;;3.00;;
66626;SDS011;53498;50.422;14.912;2023-07-08T08:38:37;3.50;;;2.75;;
66626;SDS011;53498;50.422;14.912;2023-07-08T08:41:11;3.88;;;2.90;;
66626;SDS011;53498;50.422;14.912;2023-07-08T08:43:38;4.82;;;3.05;;
66626;SDS011;53498;50.422;14.912;2023-07-08T08:48:40;4.53;;;3.03;;
66626;SDS011;53498;50.422;14.912;2023-07-08T08:51:14;4.00;;;2.70;;
66626;SDS011;53498;50.422;14.912;2023-07-08T08:53:41;5.28;;;3.10;;
66626;SDS011;53498;50.422;14.912;2023-07-08T08:56:24;4.95;;;3.25;;
66626;SDS011;53498;50.422;14.912;2023-07-08T08:58:57;4.32;;;3.08;;
66626;SDS011;53498;50.422;14.912;2023-07-08T09:01:29;4.22;;;3.30;;
66626;SDS011;53498;50.422;14.912;2023-07-08T09:04:11;3.78;;;3.25;;
66626;SDS011;53498;50.422;14.912;2023-07-08T09:06:42;4.00;;;3.25;;
66626;SDS011;53498;50.422;14.912;2023-07-08T09:09:30;4.68;;;3.17;;
66626;SDS011;53498;50.422;14.912;2023-07-08T09:12:00;3.80;;;3.42;;
66626;SDS011;53498;50.422;14.912;2023-07-08T09:14:30;4.93;;;3.15;;
66626;SDS011;53498;50.422;14.912;2023-07-08T09:25:57;3.47;;;2.80;;
66626;SDS011;53498;50.422;14.912;2023-07-08T09:28:35;3.30;;;2.97;;
66626;SDS011;53498;50.422;14.912;2023-07-08T09:31:02;4.07;;;3.42;;
66626;SDS011;53498;50.422;14.912;2023-07-08T09:33:31;4.22;;;2.83;;
66626;SDS011;53498;50.422;14.912;2023-07-08T09:35:57;5.82;;;3.20;;
66626;SDS011;53498;50.422;14.912;2023-07-08T09:38:22;3.78;;;3.10;;
66626;SDS011;53498;50.422;14.912;2023-07-08T09:40:49;3.63;;;3.13;;
66626;SDS011;53498;50.422;14.912;2023-07-08T09:43:26;5.45;;;3.15;;
66626;SDS011;53498;50.422;14.912;2023-07-08T09:45:57;4.47;;;2.95;;
66626;SDS011;53498;50.422;14.912;2023-07-08T09:48:25;4.10;;;3.38;;
66626;SDS011;53498;50.422;14.912;2023-07-08T09:50:53;3.28;;;2.97;;
66626;SDS011;53498;50.422;14.912;2023-07-08T09:53:21;4.13;;;3.22;;
66626;SDS011;53498;50.422;14.912;2023-07-08T09:55:47;6.82;;;3.13;;
66626;SDS011;53498;50.422;14.912;2023-07-08T09:58:23;3.60;;;3.00;;
66626;SDS011;53498;50.422;14.912;2023-07-08T10:00:51;2.80;;;2.60;;
66626;SDS011;53498;50.422;14.912;2023-07-08T10:03:27;3.83;;;3.20;;
66626;SDS011;53498;50.422;14.912;2023-07-08T10:05:57;5.07;;;3.20;;
66626;SDS011;53498;50.422;14.912;2023-07-08T10:08:29;3.97;;;2.90;;
66626;SDS011;53498;50.422;14.912;2023-07-08T10:11:04;4.20;;;3.30;;
66626;SDS011;53498;50.422;14.912;2023-07-08T10:13:40;5.95;;;2.92;;
66626;SDS011;53498;50.422;14.912;2023-07-08T10:18:39;3.78;;;2.97;;
66626;SDS011;53498;50.422;14.912;2023-07-08T10:21:20;4.05;;;2.80;;
66626;SDS011;53498;50.422;14.912;2023-07-08T10:31:40;4.30;;;3.17;;
66626;SDS011;53498;50.422;14.912;2023-07-08T10:34:21;6.60;;;3.28;;
66626;SDS011;53498;50.422;14.912;2023-07-08T10:37:03;3.72;;;3.15;;
66626;SDS011;53498;50.422;14.912;2023-07-08T10:45:35;5.28;;;3.42;;
66626;SDS011;53498;50.422;14.912;2023-07-08T10:48:17;5.72;;;3.17;;
66626;SDS011;53498;50.422;14.912;2023-07-08T10:53:28;3.90;;;3.05;;
66626;SDS011;53498;50.422;14.912;2023-07-08T10:56:18;4.55;;;3.00;;
66626;SDS011;53498;50.422;14.912;2023-07-08T11:10:12;4.78;;;3.45;;
66626;SDS011;53498;50.422;14.912;2023-07-08T11:12:54;4.20;;;3.38;;
66626;SDS011;53498;50.422;14.912;2023-07-08T11:23:42;3.95;;;3.00;;
66626;SDS011;53498;50.422;14.912;2023-07-08T11:26:31;3.30;;;2.80;;
66626;SDS011;53498;50.422;14.912;2023-07-08T11:29:02;3.78;;;3.08;;
66626;SDS011;53498;50.422;14.912;2023-07-08T11:31:34;5.63;;;3.08;;
66626;SDS011;53498;50.422;14.912;2023-07-08T11:34:00;5.22;;;3.03;;
66626;SDS011;53498;50.422;14.912;2023-07-08T11:36:27;5.97;;;3.17;;
66626;SDS011;53498;50.422;14.912;2023-07-08T11:38:55;4.32;;;3.35;;
66626;SDS011;53498;50.422;14.912;2023-07-08T11:41:26;4.35;;;3.05;;
66626;SDS011;53498;50.422;14.912;2023-07-08T11:43:57;6.15;;;3.70;;
66626;SDS011;53498;50.422;14.912;2023-07-08T11:46:26;4.18;;;2.97;;
66626;SDS011;53498;50.422;14.912;2023-07-08T11:49:10;3.75;;;3.10;;
66626;SDS011;53498;50.422;14.912;2023-07-08T11:51:39;4.82;;;2.72;;
66626;SDS011;53498;50.422;14.912;2023-07-08T11:54:13;5.13;;;2.88;;
66626;SDS011;53498;50.422;14.912;2023-07-08T11:56:48;3.78;;;2.95;;
66626;SDS011;53498;50.422;14.912;2023-07-08T11:59:22;3.35;;;2.80;;
66626;SDS011;53498;50.422;14.912;2023-07-08T12:01:52;3.00;;;2.70;;
66626;SDS011;53498;50.422;14.912;2023-07-08T12:07:58;2.97;;;2.67;;
66626;SDS011;53498;50.422;14.912;2023-07-08T12:10:09;3.58;;;3.08;;
66626;SDS011;53498;50.422;14.912;2023-07-08T12:12:37;3.78;;;3.05;;
66626;SDS011;53498;50.422;14.912;2023-07-08T12:15:22;2.78;;;2.45;;
66626;SDS011;53498;50.422;14.912;2023-07-08T12:17:58;3.55;;;2.60;;
66626;SDS011;53498;50.422;14.912;2023-07-08T12:20:32;4.57;;;3.10;;
66626;SDS011;53498;50.422;14.912;2023-07-08T12:23:00;5.30;;;3.28;;
66626;SDS011;53498;50.422;14.912;2023-07-08T12:25:32;3.28;;;2.80;;
66626;SDS011;53498;50.422;14.912;2023-07-08T12:28:01;3.55;;;2.83;;
66626;SDS011;53498;50.422;14.912;2023-07-08T12:30:28;2.88;;;2.50;;
66626;SDS011;53498;50.422;14.912;2023-07-08T12:32:55;3.25;;;2.70;;
66626;SDS011;53498;50.422;14.912;2023-07-08T12:35:25;4.72;;;2.85;;
66626;SDS011;53498;50.422;14.912;2023-07-08T12:37:58;3.25;;;2.72;;
66626;SDS011;53498;50.422;14.912;2023-07-08T12:40:27;4.05;;;2.95;;
66626;SDS011;53498;50.422;14.912;2023-07-08T12:42:55;3.35;;;2.72;;
66626;SDS011;53498;50.422;14.912;2023-07-08T12:45:22;4.68;;;2.83;;
66626;SDS011;53498;50.422;14.912;2023-07-08T12:47:49;3.20;;;2.67;;
66626;SDS011;53498;50.422;14.912;2023-07-08T12:50:20;2.90;;;2.60;;
66626;SDS011;53498;50.422;14.912;2023-07-08T12:52:47;4.57;;;2.75;;
66626;SDS011;53498;50.422;14.912;2023-07-08T12:55:13;3.20;;;2.42;;
66626;SDS011;53498;50.422;14.912;2023-07-08T12:57:40;4.40;;;2.70;;
66626;SDS011;53498;50.422;14.912;2023-07-08T13:00:16;3.38;;;2.80;;
66626;SDS011;53498;50.422;14.912;2023-07-08T13:02:54;3.05;;;2.42;;
66626;SDS011;53498;50.422;14.912;2023-07-08T13:05:24;3.58;;;3.03;;
66626;SDS011;53498;50.422;14.912;2023-07-08T13:07:51;3.85;;;2.97;;
66626;SDS011;53498;50.422;14.912;2023-07-08T13:10:18;3.15;;;2.65;;
66626;SDS011;53498;50.422;14.912;2023-07-08T13:12:47;6.80;;;3.10;;
66626;SDS011;53498;50.422;14.912;2023-07-08T13:15:22;3.65;;;2.78;;
66626;SDS011;53498;50.422;14.912;2023-07-08T13:17:52;4.57;;;2.97;;
66626;SDS011;53498;50.422;14.912;2023-07-08T13:20:18;5.35;;;3.28;;
66626;SDS011;53498;50.422;14.912;2023-07-08T13:22:46;4.38;;;3.30;;
66626;SDS011;53498;50.422;14.912;2023-07-08T13:25:17;4.40;;;2.88;;
66626;SDS011;53498;50.422;14.912;2023-07-08T13:27:53;2.90;;;2.60;;
66626;SDS011;53498;50.422;14.912;2023-07-08T13:30:21;2.97;;;2.60;;
66626;SDS011;53498;50.422;14.912;2023-07-08T13:32:54;3.67;;;2.85;;
66626;SDS011;53498;50.422;14.912;2023-07-08T13:35:21;2.45;;;2.22;;
66626;SDS011;53498;50.422;14.912;2023-07-08T13:37:52;4.07;;;2.42;;
66626;SDS011;53498;50.422;14.912;2023-07-08T13:40:22;3.30;;;2.72;;
66626;SDS011;53498;50.422;14.912;2023-07-08T13:42:52;3.08;;;2.70;;
66626;SDS011;53498;50.422;14.912;2023-07-08T13:45:23;3.80;;;2.53;;
66626;SDS011;53498;50.422;14.912;2023-07-08T13:50:27;3.87;;;2.90;;
66626;SDS011;53498;50.422;14.912;2023-07-08T13:52:56;3.70;;;2.75;;
66626;SDS011;53498;50.422;14.912;2023-07-08T13:55:22;2.53;;;2.30;;
66626;SDS011;53498;50.422;14.912;2023-07-08T13:57:59;4.35;;;2.63;;
66626;SDS011;53498;50.422;14.912;2023-07-08T14:00:28;3.42;;;2.70;;
66626;SDS011;53498;50.422;14.912;2023-07-08T14:02:55;3.72;;;2.60;;
66626;SDS011;53498;50.422;14.912;2023-07-08T14:05:21;2.78;;;2.53;;
66626;SDS011;53498;50.422;14.912;2023-07-08T14:07:47;3.05;;;2.40;;
66626;SDS011;53498;50.422;14.912;2023-07-08T14:10:14;3.33;;;2.80;;
66626;SDS011;53498;50.422;14.912;2023-07-08T14:12:40;3.70;;;2.78;;
66626;SDS011;53498;50.422;14.912;2023-07-08T14:15:06;4.18;;;2.70;;
66626;SDS011;53498;50.422;14.912;2023-07-08T14:17:32;4.07;;;2.75;;
66626;SDS011;53498;50.422;14.912;2023-07-08T14:19:58;3.40;;;2.50;;
66626;SDS011;53498;50.422;14.912;2023-07-08T14:22:28;3.50;;;2.53;;
66626;SDS011;53498;50.422;14.912;2023-07-08T14:24:56;2.63;;;2.38;;
66626;SDS011;53498;50.422;14.912;2023-07-08T14:27:26;4.43;;;2.90;;
66626;SDS011;53498;50.422;14.912;2023-07-08T14:29:51;6.45;;;2.70;;
66626;SDS011;53498;50.422;14.912;2023-07-08T14:32:21;2.83;;;2.55;;
66626;SDS011;53498;50.422;14.912;2023-07-08T14:34:55;5.53;;;2.70;;
66626;SDS011;53498;50.422;14.912;2023-07-08T14:37:22;4.78;;;3.03;;
66626;SDS011;53498;50.422;14.912;2023-07-08T14:39:48;4.90;;;3.25;;
66626;SDS011;53498;50.422;14.912;2023-07-08T14:42:15;3.20;;;2.42;;
66626;SDS011;53498;50.422;14.912;2023-07-08T14:44:45;3.30;;;3.00;;
66626;SDS011;53498;50.422;14.912;2023-07-08T14:47:14;3.65;;;2.85;;
66626;SDS011;53498;50.422;14.912;2023-07-08T14:49:42;3.53;;;2.50;;
66626;SDS011;53498;50.422;14.912;2023-07-08T14:52:08;3.70;;;2.85;;
66626;SDS011;53498;50.422;14.912;2023-07-08T14:54:33;3.63;;;2.78;;
66626;SDS011;53498;50.422;14.912;2023-07-08T14:57:00;3.35;;;2.70;;
66626;SDS011;53498;50.422;14.912;2023-07-08T14:59:27;4.10;;;2.65;;
66626;SDS011;53498;50.422;14.912;2023-07-08T15:01:56;4.05;;;2.88;;
66626;SDS011;53498;50.422;14.912;2023-07-08T15:04:23;2.90;;;2.60;;
66626;SDS011;53498;50.422;14.912;2023-07-08T15:06:48;3.38;;;2.90;;
66626;SDS011;53498;50.422;14.912;2023-07-08T15:09:15;3.30;;;3.00;;
66626;SDS011;53498;50.422;14.912;2023-07-08T15:11:42;4.45;;;2.80;;
66626;SDS011;53498;50.422;14.912;2023-07-08T15:14:26;2.85;;;2.33;;
66626;SDS011;53498;50.422;14.912;2023-07-08T15:16:52;3.17;;;2.60;;
66626;SDS011;53498;50.422;14.912;2023-07-08T15:19:19;4.50;;;2.65;;
66626;SDS011;53498;50.422;14.912;2023-07-08T15:21:45;4.07;;;2.75;;
66626;SDS011;53498;50.422;14.912;2023-07-08T15:24:12;4.80;;;2.83;;
66626;SDS011;53498;50.422;14.912;2023-07-08T15:26:46;3.83;;;3.00;;
66626;SDS011;53498;50.422;14.912;2023-07-08T15:29:16;3.42;;;2.70;;
66626;SDS011;53498;50.422;14.912;2023-07-08T15:31:45;4.22;;;2.85;;
66626;SDS011;53498;50.422;14.912;2023-07-08T15:34:14;3.78;;;2.80;;
66626;SDS011;53498;50.422;14.912;2023-07-08T15:36:43;3.45;;;2.97;;
66626;SDS011;53498;50.422;14.912;2023-07-08T15:39:08;2.70;;;2.50;;
66626;SDS011;53498;50.422;14.912;2023-07-08T15:41:34;5.85;;;3.03;;
66626;SDS011;53498;50.422;14.912;2023-07-08T15:44:01;3.38;;;2.90;;
66626;SDS011;53498;50.422;14.912;2023-07-08T15:46:33;4.18;;;2.75;;